Date,TemperatureHighF,TemperatureAvgF,TemperatureLowF,DewpointHighF,DewpointAvgF,DewpointLowF,HumidityHigh,HumidityAvg,HumidityLow,PressureMaxIn,PressureMinIn,WindSpeedMaxMPH,WindSpeedAvgMPH,GustSpeedMaxMPH,PrecipitationSumIn
2013-1-1,26.2,18.7,7.5,8.8,2.0,-8.4,48,48,48,29.83,29.69,6,1,7,0.00
2013-1-2,25.0,18.2,7.9,7.7,1.4,-8.0,48,48,48,29.86,29.76,6,1,9,0.00
2013-1-3,27.1,21.7,14.2,9.7,4.7,-2.2,48,48,48,29.83,29.72,7,1,7,8.67
2013-1-4,28.9,24.9,20.3,11.3,7.6,3.4,48,48,48,29.85,29.66,9,2,9,0.02
2013-1-5,31.6,23.1,12.4,24.2,6.8,-3.9,78,50,48,29.96,29.70,8,1,8,0.00
2013-1-6,35.8,32.3,30.0,26.6,18.9,12.2,83,59,48,29.93,29.58,6,1,6,0.04
2013-1-7,34.0,28.8,24.4,16.0,11.2,7.2,48,48,48,30.04,29.82,13,2,13,0.00
2013-1-8,35.8,26.8,18.7,17.7,9.5,1.9,60,48,48,29.92,29.83,6,1,6,9.40
2013-1-9,42.8,34.5,22.8,27.9,19.4,5.7,83,56,48,30.09,29.70,11,3,11,0.08
2013-1-10,28.9,24.0,20.7,11.3,6.8,3.8,48,48,48,30.20,30.09,0,0,0,0.00
2013-1-11,50.7,40.4,34.0,48.6,37.4,27.7,100,90,78,29.85,29.44,10,1,10,0.63
2013-1-12,43.7,43.7,43.7,41.6,41.2,40.9,93,91,90,29.53,29.52,1,1,1,0.00
2013-1-13,49.1,34.7,30.7,48.4,30.7,25.2,98,85,78,29.67,29.58,54,1,54,0.02
2013-1-14,28.8,21.9,15.4,21.9,5.3,-1.2,75,49,48,30.10,29.71,10,2,13,0.00
2013-1-15,29.8,20.3,11.5,12.2,3.7,-4.7,68,49,48,30.13,29.83,4,0,4,0.00
2013-1-16,34.0,24.6,17.8,16.0,7.7,1.1,65,49,48,29.83,29.48,9,1,9,0.00
2013-1-17,33.3,27.5,15.3,15.4,10.0,-1.2,48,48,48,29.98,29.61,43,3,43,0.00
2013-1-18,32.2,22.1,9.3,14.4,5.0,-6.7,48,48,48,30.13,29.64,13,2,13,0.00
2013-1-19,46.4,37.7,29.8,27.3,19.4,12.2,48,48,48,29.64,29.23,11,2,11,0.00
2013-1-20,41.9,20.9,13.6,23.3,4.0,-2.8,48,48,48,29.86,29.22,17,4,17,3.02
2013-1-21,16.3,10.7,-0.2,-0.3,-5.4,-15.5,48,48,48,29.83,29.63,9,2,9,0.00
2013-1-22,8.1,1.3,-5.3,-7.9,-14.1,-20.2,48,48,48,29.98,29.81,8,1,8,0.46
2013-1-23,17.4,8.5,-2.4,0.7,-7.5,-17.5,48,48,48,29.98,29.76,6,0,6,0.00
2013-1-24,15.3,9.4,3.4,-1.2,-6.6,-12.2,48,48,48,30.26,29.79,8,1,8,0.00
2013-1-25,23.7,16.4,10.4,6.5,-0.2,-5.7,48,48,48,30.18,29.69,9,1,9,0.00
2013-1-26,25.9,18.6,10.6,8.6,1.8,-5.5,48,48,48,30.13,29.73,7,1,7,0.00
2013-1-27,30.9,20.5,6.1,21.8,4.2,-9.7,78,50,48,30.16,29.81,11,2,11,0.00
2013-1-28,42.8,35.0,28.0,40.7,31.4,21.9,93,87,78,29.83,29.52,10,0,10,0.23
2013-1-29,54.0,42.9,32.4,51.8,40.1,27.7,93,90,83,29.70,29.15,13,2,13,0.61
2013-1-30,56.7,48.7,32.2,53.8,45.9,20.9,95,90,63,29.15,28.80,12,2,12,0.29
2013-1-31,32.2,20.5,14.2,20.9,3.7,-2.2,63,48,48,29.56,28.91,12,3,12,0.00
2013-2-1,18.9,15.2,11.3,18.0,-0.5,-4.9,100,51,48,29.91,29.56,8,2,8,0.00
2013-2-2,24.3,21.5,18.9,24.3,8.6,2.1,100,60,48,29.66,29.62,0,0,0,1.89
2013-2-3,36.3,15.6,11.3,32.4,-0.5,-4.9,100,49,48,29.69,29.55,88,2,88,0.00
2013-2-4,26.8,18.1,12.4,9.4,1.4,-3.9,48,48,48,29.71,29.56,6,0,6,0.00
2013-2-5,29.3,20.8,9.3,16.8,4.2,-6.7,70,49,48,29.63,29.48,6,1,6,0.00
2013-2-6,28.0,19.8,6.3,10.5,3.0,-9.5,48,48,48,29.97,29.62,6,1,6,0.00
2013-2-7,40.5,29.2,22.3,22.0,11.6,5.2,48,48,48,29.96,29.56,9,2,9,0.00
2013-2-8,27.3,24.5,18.3,20.3,10.0,1.6,75,55,48,30.01,29.47,20,3,20,1.53
2013-2-9,29.1,16.1,2.8,11.5,-0.5,-12.7,48,48,48,30.13,29.96,9,1,9,1.57
2013-2-10,39.6,27.6,15.4,31.8,12.6,-1.1,88,55,48,29.97,29.37,15,2,15,0.12
2013-2-11,41.5,35.0,30.4,40.1,22.4,12.7,95,63,48,29.53,29.22,13,3,13,0.05
2013-2-12,32.9,29.5,26.2,15.0,11.8,8.8,48,48,48,29.72,29.53,7,2,7,0.00
2013-2-13,35.8,28.8,24.6,17.7,11.2,7.4,48,48,48,29.60,29.40,6,0,6,0.00
2013-2-14,38.3,31.5,22.8,27.9,16.9,6.9,85,56,48,29.50,29.35,10,1,10,0.00
2013-2-15,32.9,26.0,20.3,15.0,8.6,3.4,48,48,48,29.79,29.50,7,2,7,0.00
2013-2-16,29.1,18.1,10.6,11.5,1.4,-5.5,48,48,48,29.78,29.61,6,0,6,1.57
2013-2-17,20.3,12.2,3.9,3.4,-4.1,-11.7,48,48,48,29.91,29.72,10,1,10,0.00
2013-2-18,13.6,11.7,8.1,-2.9,-4.6,-7.9,48,48,48,29.91,29.86,5,0,5,0.00
2013-2-19,40.1,25.0,15.4,38.7,10.9,-1.1,95,56,48,29.61,29.09,11,3,11,0.00
2013-2-20,20.8,17.5,12.9,3.9,0.8,-3.4,48,48,48,29.90,29.61,12,3,12,0.00
2013-2-21,24.4,18.9,16.5,7.2,2.1,-0.1,48,48,48,30.06,29.90,10,2,10,0.00
2013-2-22,31.5,21.9,19.6,28.2,6.0,2.8,88,51,48,29.95,29.57,12,2,12,0.00
2013-2-23,43.0,30.1,22.6,27.9,13.1,5.4,80,50,48,29.60,29.53,57,9,57,0.20
2013-2-24,36.0,25.7,16.9,17.9,8.4,0.3,48,48,48,29.84,29.57,57,3,57,0.00
2013-2-25,41.2,25.9,10.8,22.6,8.6,-5.4,48,48,48,29.93,29.78,8,1,8,0.00
2013-2-26,38.1,30.4,25.0,29.2,16.7,7.7,88,59,48,29.82,29.20,57,3,57,0.04
2013-2-27,35.2,33.3,32.4,31.7,29.2,27.4,88,85,80,29.25,29.15,7,0,7,0.03
2013-2-28,36.5,32.2,27.3,30.1,20.4,9.8,85,64,48,29.64,29.22,57,3,57,0.00
2013-3-1,27.3,24.2,22.3,9.8,7.0,5.2,48,48,48,29.79,29.63,57,4,57,0.00
2013-3-2,26.4,22.8,20.8,9.0,5.7,3.8,48,48,48,29.76,29.72,28,3,28,0.00
2013-3-3,27.1,20.4,14.2,9.6,3.5,-2.2,48,48,48,29.74,29.66,57,6,57,0.00
2013-3-4,32.2,20.5,8.1,14.4,3.6,-7.9,48,48,48,29.84,29.74,57,1,57,0.00
2013-3-5,34.7,25.7,16.0,16.7,8.4,-0.8,48,48,48,29.83,29.51,57,4,57,0.00
2013-3-6,42.4,32.2,24.1,23.8,14.4,6.9,48,48,48,29.88,29.54,57,2,57,0.00
2013-3-7,35.1,31.4,23.0,20.9,13.9,5.9,63,49,48,30.07,29.87,28,1,28,0.00
2013-3-8,39.6,25.8,17.8,21.2,8.4,1.1,48,48,48,30.16,30.06,7,1,28,0.08
2013-3-9,42.4,34.9,22.5,23.8,17.1,5.4,65,48,48,30.09,29.72,14,2,14,0.37
2013-3-10,59.4,47.3,34.3,39.4,28.2,16.3,48,48,48,29.73,29.47,57,4,57,0.02
2013-3-11,52.0,47.5,36.1,47.3,37.3,17.9,95,70,48,29.50,29.15,57,4,57,0.41
2013-3-12,38.3,33.8,27.0,20.0,15.8,9.6,48,48,48,29.59,29.35,57,3,57,0.21
2013-3-13,30.9,27.2,22.6,14.0,9.9,5.5,53,48,48,29.85,29.52,57,5,57,0.00
2013-3-14,37.6,27.6,17.8,19.3,10.2,1.1,48,48,48,29.93,29.76,57,12,57,0.00
2013-3-15,39.6,33.1,24.6,25.9,16.0,7.4,75,50,48,29.76,29.53,57,8,57,0.00
2013-3-16,34.5,28.0,21.4,25.9,11.5,4.4,75,50,48,29.71,29.46,11,1,11,0.00
2013-3-17,30.0,24.4,18.9,12.3,7.1,2.1,48,48,48,29.94,29.71,28,2,28,0.00
2013-3-21,29.5,26.6,24.4,11.9,9.0,0.0,48,47,48,29.60,29.53,57,4,57,0.00
2013-3-22,40.3,29.0,22.6,21.0,11.4,5.5,48,48,48,29.70,29.59,57,5,57,0.00
2013-3-23,39.6,28.6,19.0,21.0,11.1,2.2,55,48,48,29.77,29.68,57,5,57,0.00
2013-3-24,38.7,28.5,19.8,20.3,10.9,2.9,48,48,48,29.75,29.33,57,6,57,0.02
2013-3-25,39.9,33.6,29.3,21.3,15.6,11.7,48,48,48,29.58,29.26,57,10,57,0.00
2013-3-26,43.5,34.8,31.1,24.8,16.8,13.3,48,48,48,29.77,29.58,57,11,57,0.00
2013-3-27,47.1,36.7,26.8,28.1,18.5,9.4,48,48,48,29.85,29.77,57,11,57,0.00
2013-3-28,50.4,38.9,28.6,31.1,20.5,11.0,48,48,48,29.93,29.85,57,18,57,0.00
2013-3-29,50.9,38.1,24.3,31.6,19.8,6.9,48,48,48,29.96,29.84,57,11,57,0.00
2013-3-30,55.6,38.8,22.8,35.9,20.4,5.7,48,48,48,29.90,29.60,57,4,57,0.02
2013-3-31,56.7,44.7,35.2,36.9,26.0,17.0,60,48,48,29.60,29.28,57,3,57,0.00
2013-4-1,40.6,31.1,24.1,22.1,13.3,6.7,48,48,48,29.76,29.35,57,7,57,0.00
2013-4-2,41.9,29.4,19.8,23.3,11.8,2.9,48,48,48,29.92,29.75,57,7,57,0.00
2013-4-3,39.6,29.3,19.9,21.2,11.7,3.0,48,48,48,30.08,29.91,57,5,57,0.00
2013-4-4,54.1,38.1,22.5,34.5,19.8,5.4,48,48,48,30.03,29.61,57,6,57,0.00
2013-4-5,45.3,39.4,29.7,26.2,21.0,11.9,48,48,48,29.88,29.60,57,6,57,0.00
2013-4-6,52.3,39.0,26.1,32.9,20.6,8.7,48,48,48,29.92,29.46,57,6,57,0.00
2013-4-7,55.2,48.5,35.4,35.5,29.4,17.1,48,48,48,29.71,29.28,57,6,57,0.00
2013-4-8,61.9,43.8,31.5,51.8,28.0,13.5,90,55,48,29.73,29.38,57,3,57,0.10
2013-4-9,54.9,45.6,39.9,44.1,33.6,23.8,93,65,48,29.77,29.56,57,2,57,0.73
2013-4-10,45.5,40.3,36.9,42.5,36.5,31.9,90,87,78,29.70,29.52,105,2,105,27.01
2013-4-11,37.6,35.9,34.5,33.5,31.0,29.0,88,83,80,29.66,29.31,57,3,57,0.95
2013-4-12,43.5,37.6,33.4,39.5,29.5,20.3,88,74,48,29.44,29.21,57,2,57,0.35
2013-4-13,45.0,38.1,35.1,35.3,22.7,17.0,88,55,48,29.61,29.44,57,5,57,0.00
2013-4-14,50.4,42.1,27.9,31.1,23.5,10.4,48,48,48,29.78,29.62,57,4,57,0.02
2013-4-15,70.5,53.5,36.5,52.2,35.2,18.3,85,51,48,29.64,29.54,57,7,57,0.02
2013-4-16,61.0,54.0,45.9,52.2,42.0,26.6,93,67,48,29.89,29.53,57,6,57,0.04
2013-4-17,59.9,47.0,37.8,40.8,30.0,19.5,88,53,48,30.01,29.71,57,7,57,0.90
2013-4-18,78.3,57.0,43.0,59.5,51.0,39.5,93,82,48,29.71,29.23,57,4,57,0.63
2013-4-19,58.1,45.4,35.1,55.0,34.3,16.8,90,68,48,29.41,29.00,57,6,57,0.31
2013-4-20,41.4,33.7,26.4,22.8,15.7,8.8,48,48,48,30.11,29.40,57,4,57,0.00
2013-4-21,52.0,36.0,21.4,32.6,17.8,4.4,48,48,48,30.29,30.11,57,4,57,0.00
2013-4-22,63.5,46.3,29.7,43.2,27.4,12.1,50,48,48,30.14,29.85,57,8,57,0.00
2013-4-23,72.3,55.3,39.4,51.3,37.8,21.0,83,53,48,29.86,29.48,57,6,57,0.18
2013-4-24,54.9,39.5,33.1,51.0,32.5,15.2,90,77,48,29.80,29.42,28,2,28,0.12
2013-4-25,51.3,39.5,29.5,40.9,24.1,11.9,83,55,48,30.00,29.76,57,3,57,0.08
2013-4-26,59.2,44.5,27.3,39.2,26.2,9.7,78,49,48,30.12,29.98,57,5,57,0.00
2013-4-27,70.2,53.6,36.1,49.3,34.2,18.0,63,48,48,30.02,29.79,57,5,57,0.00
2013-4-28,58.5,53.2,47.5,50.5,40.8,28.4,88,65,48,29.78,29.51,57,4,57,0.17
2013-4-29,72.3,60.4,53.2,52.2,48.4,38.8,90,68,48,29.61,29.51,57,4,57,0.00
2013-4-30,72.9,61.2,53.1,57.4,47.5,38.2,90,63,48,29.76,29.61,57,6,57,0.18
2013-5-1,82.6,66.9,51.4,60.5,51.4,42.7,88,60,48,29.91,29.74,57,5,57,0.00
2013-5-2,79.2,66.5,53.1,57.4,46.0,33.6,53,48,48,29.93,29.81,57,6,57,0.00
2013-5-3,79.5,66.9,55.8,57.9,46.3,36.1,48,48,48,29.82,29.73,57,8,57,0.00
2013-5-4,71.1,62.8,54.3,50.1,42.5,34.7,48,48,48,29.81,29.73,57,7,57,0.00
2013-5-5,72.7,62.2,52.2,51.6,42.0,32.8,48,48,48,29.78,29.69,57,13,57,0.20
2013-5-6,75.6,62.4,48.4,54.1,42.2,29.3,48,48,48,29.75,29.65,57,7,57,0.05
2013-5-7,77.4,64.0,50.5,55.8,43.6,31.2,48,48,48,29.74,29.66,57,3,57,0.00
2013-5-8,83.1,66.8,53.1,61.2,46.2,33.6,50,48,48,29.69,29.60,57,5,57,0.00
2013-5-9,85.3,68.6,51.4,63.2,49.1,33.4,75,51,48,29.65,29.56,57,5,57,0.00
2013-5-10,70.7,57.9,41.7,56.9,40.8,23.1,78,54,48,29.59,29.42,57,3,57,0.18
2013-5-11,66.0,49.0,37.9,45.3,30.1,19.6,63,49,48,29.56,29.38,57,4,57,0.00
2013-5-12,52.2,41.4,33.4,32.8,22.8,15.5,48,48,48,29.75,29.53,57,5,57,0.00
2013-5-13,33.4,32.1,30.6,15.4,14.3,12.9,48,48,48,29.76,29.74,0,0,0,0.00
2013-5-14,73.0,55.1,41.9,51.9,35.5,23.3,48,48,48,29.77,29.40,57,6,57,0.00
2013-5-15,82.0,69.2,53.8,60.2,49.4,34.2,75,50,48,29.47,29.27,57,4,57,0.00
2013-5-16,81.0,66.1,50.7,59.2,45.6,31.2,53,48,48,29.71,29.46,57,4,57,0.00
2013-5-17,74.8,61.4,50.2,53.5,41.2,30.9,48,48,48,29.82,29.71,57,7,57,0.00
2013-5-18,80.2,66.7,55.6,58.5,46.1,35.9,48,48,48,29.83,29.71,57,7,57,0.00
2013-5-19,89.1,71.6,54.7,66.7,50.6,34.9,48,48,48,29.73,29.56,57,5,57,0.00
2013-5-20,88.7,75.2,62.6,66.3,54.5,42.5,63,49,48,29.62,29.45,57,3,57,0.04
2013-5-21,88.0,76.9,68.9,65.7,55.9,48.1,63,49,48,29.51,29.40,57,2,57,0.02
2013-5-22,80.4,70.6,63.0,58.7,51.7,45.8,73,52,48,29.43,29.30,57,2,57,0.14
2013-5-23,63.0,52.5,41.2,54.9,39.4,22.6,75,62,48,29.80,29.36,28,2,28,0.21
2013-5-24,53.8,45.9,37.0,34.2,27.0,18.8,48,48,48,30.01,29.80,57,4,57,0.00
2013-5-25,63.9,51.0,36.0,43.5,31.6,17.9,48,48,48,30.06,29.94,57,5,57,0.00
2013-5-26,68.4,55.0,38.3,47.7,35.4,20.0,50,48,48,30.01,29.89,57,4,57,0.00
2013-5-27,68.4,53.6,42.8,47.5,36.5,23.8,78,54,48,29.94,29.69,57,4,57,0.34
2013-5-28,70.7,60.3,51.6,60.4,52.4,44.7,80,75,68,29.69,29.48,10,1,10,0.72
2013-5-29,82.0,71.3,62.8,61.3,56.6,50.8,75,61,48,29.68,29.42,57,1,57,0.06
2013-5-30,86.4,72.0,63.3,67.2,59.6,51.0,75,66,48,29.74,29.65,57,1,57,0.43
2013-5-31,83.5,71.9,66.6,65.3,60.2,53.1,75,67,48,29.69,29.53,57,2,57,0.51
2013-6-1,80.2,73.5,64.0,60.6,55.0,47.5,78,53,48,29.56,29.37,100,7,111,15.56
2013-6-2,71.6,64.9,53.8,56.9,49.1,34.2,78,58,48,29.66,29.33,57,4,57,0.02
2013-6-3,64.9,55.8,44.2,44.5,36.2,25.4,58,48,48,29.75,29.65,57,9,57,0.00
2013-6-4,70.2,59.8,48.9,49.1,41.5,29.7,75,52,48,29.87,29.75,57,7,57,0.97
2013-6-5,72.5,61.7,30.2,51.3,41.5,12.5,48,48,48,29.86,29.66,57,6,57,0.00
2013-6-6,67.8,60.7,56.1,47.1,40.6,36.4,48,48,48,29.68,29.53,57,12,57,0.00
2013-6-7,62.4,56.7,52.5,43.5,40.7,33.9,68,56,48,29.59,29.54,57,4,57,0.02
2013-6-8,71.8,62.7,56.1,50.8,44.6,39.6,63,52,48,29.75,29.58,57,3,57,0.00
2013-6-9,76.6,66.6,56.5,55.2,47.3,38.0,65,51,48,29.80,29.64,57,7,57,0.00
2013-6-10,70.7,65.3,59.7,61.4,55.7,40.3,78,72,48,29.64,29.42,57,1,57,0.00
2013-6-11,78.8,70.3,63.3,59.7,55.7,49.6,78,61,48,29.57,29.44,57,1,57,0.00
2013-6-12,75.0,69.3,61.5,59.4,55.4,51.8,78,62,48,29.61,29.33,57,1,57,0.00
2013-6-13,74.8,67.7,59.5,58.6,52.9,44.6,78,61,48,29.60,29.25,57,3,57,0.00
2013-6-14,73.6,65.9,57.9,52.4,45.8,38.8,58,49,48,29.74,29.60,57,4,57,0.00
2013-6-15,79.2,68.0,56.3,57.4,49.6,38.0,75,53,48,29.77,29.60,57,1,57,0.00
2013-6-16,78.6,70.5,64.6,59.9,53.5,44.4,78,56,48,29.60,29.45,57,3,57,0.00
2013-6-17,83.3,70.4,59.2,61.4,51.4,41.1,68,52,48,29.61,29.52,57,5,57,0.00
2013-6-18,70.5,62.3,54.0,52.5,46.9,36.2,83,59,48,29.76,29.57,57,4,57,0.06
2013-6-19,72.9,62.9,50.7,51.8,42.6,31.4,48,48,48,29.85,29.75,57,7,57,13.30
2013-6-20,79.7,67.8,53.6,58.0,48.2,34.5,70,50,48,29.89,29.81,57,5,57,0.00
2013-6-21,86.4,72.5,58.6,64.2,51.5,38.7,48,48,48,29.89,29.72,57,6,57,0.00
2013-6-22,88.0,77.2,69.3,75.0,55.9,48.5,100,49,48,29.78,29.66,57,2,57,0.00
2013-6-23,89.1,79.6,69.3,66.7,59.4,50.1,63,51,48,29.74,29.64,57,2,57,0.00
2013-6-24,87.4,77.8,69.4,65.1,57.3,48.6,70,50,48,29.74,29.59,57,2,57,0.20
2013-6-25,79.9,71.5,66.7,64.1,59.8,56.9,75,67,48,29.65,29.51,6,0,6,0.16
2013-6-26,83.1,76.6,66.6,62.7,58.2,52.9,75,54,48,29.56,29.43,57,2,57,0.00
2013-6-27,82.8,72.6,65.8,65.4,60.2,52.6,78,66,48,29.45,29.30,11,0,11,1.22
2013-6-28,76.3,68.1,64.0,60.9,57.8,48.6,78,70,48,29.33,29.21,8,0,8,29.96
2013-6-29,75.2,67.7,63.3,59.2,53.6,44.2,78,63,48,29.42,29.22,7,1,28,50.50
2013-6-30,77.2,68.4,61.2,56.2,51.3,42.2,78,56,48,29.62,29.42,57,2,57,28.57
2013-7-1,67.6,62.3,57.0,56.6,46.1,39.0,83,57,48,29.74,29.61,57,1,57,0.00
2013-7-2,75.9,67.7,56.1,55.1,51.7,46.3,83,58,48,29.74,29.68,58,2,58,62.86
2013-7-3,82.2,71.0,61.0,61.5,56.1,51.5,80,61,48,29.77,29.71,57,1,57,0.00
2013-7-4,82.6,75.1,70.0,61.8,57.5,49.1,70,55,48,29.79,29.74,28,0,28,0.00
2013-7-5,82.6,75.0,68.9,62.8,57.1,48.6,73,55,48,29.78,29.71,28,1,28,0.00
2013-7-6,86.4,76.4,68.5,64.2,59.5,49.6,75,57,48,29.78,29.65,9,1,12,0.00
2013-7-8,84.4,73.3,72.0,65.8,62.7,0.0,75,71,48,27.11,27.08,29,0,29,0.02
2013-7-9,87.3,74.1,72.3,87.3,65.0,56.0,100,74,48,27.10,26.98,3,0,3,0.02
2013-7-10,89.4,78.0,67.1,68.4,61.7,46.3,73,59,48,27.06,26.88,0,0,0,0.06
2013-7-11,77.9,69.2,61.0,56.4,49.9,43.5,63,51,48,27.18,27.06,0,0,0,0.00
2013-7-12,81.3,69.4,56.8,59.5,52.6,42.7,83,57,48,27.27,27.17,0,0,0,0.00
2013-7-13,83.5,73.5,62.2,61.4,54.1,43.3,75,52,48,27.33,27.25,0,0,0,0.00
2013-7-14,89.8,78.4,66.4,67.3,59.6,47.9,75,53,48,27.37,27.31,4,0,4,0.00
2013-7-15,92.7,79.9,71.2,70.0,62.6,53.1,68,57,48,27.40,27.34,0,0,0,0.02
2013-7-16,90.5,82.2,73.6,68.2,65.3,58.0,73,58,48,27.42,27.34,1,0,1,0.00
2013-7-17,93.4,83.1,73.6,70.6,65.0,59.5,70,55,48,27.39,27.26,0,0,0,0.00
2013-7-18,94.6,83.5,73.0,71.7,65.3,58.5,70,55,48,27.28,27.07,0,0,0,0.00
2013-7-19,94.5,83.3,75.9,71.6,63.6,55.9,70,52,48,27.09,26.83,7,0,7,0.14
2013-7-20,85.5,75.2,68.5,84.4,60.6,49.3,100,62,48,27.05,26.84,4,0,4,0.11
2013-7-21,81.3,73.2,63.1,59.5,52.1,42.8,48,48,48,27.12,27.03,4,0,4,0.00
2013-7-22,84.6,74.4,68.2,62.5,55.1,47.5,68,52,48,27.09,26.88,11,1,11,0.04
2013-7-23,80.1,70.8,60.8,68.0,56.9,40.7,78,63,48,26.99,26.80,8,1,8,0.16
2013-7-24,72.5,63.9,57.9,51.4,43.5,38.0,50,48,48,27.16,26.99,9,1,9,0.00
2013-7-25,79.0,65.3,52.7,57.4,49.0,38.0,85,58,48,27.22,27.15,7,0,7,0.00
2013-7-26,80.8,69.8,58.1,58.9,51.1,40.3,73,52,48,27.21,27.02,7,1,7,0.00
2013-7-27,77.5,66.5,55.9,59.0,55.2,46.9,85,68,48,27.03,26.85,7,0,7,0.53
2013-7-28,65.3,57.4,51.3,54.6,50.9,46.1,85,79,55,27.08,26.94,3,0,3,0.06
2013-7-29,70.2,61.3,55.6,53.4,50.0,44.4,85,68,48,27.29,27.07,5,0,5,0.00
2013-7-30,77.7,65.2,52.7,58.8,51.4,46.5,85,64,48,27.34,27.23,6,0,6,0.00
2013-7-31,75.4,67.5,63.0,62.3,57.7,50.5,80,71,55,27.24,26.99,6,0,6,0.17
2013-8-1,79.2,67.0,59.9,61.0,56.8,48.8,80,71,48,27.02,26.98,5,0,5,0.08
2013-8-2,76.6,65.0,54.5,58.7,53.1,49.1,85,68,48,27.04,26.96,4,0,4,0.00
2013-8-3,76.1,67.7,57.6,58.6,52.7,43.3,83,61,48,27.16,26.99,1,0,1,0.00
2013-8-4,72.1,63.5,55.0,51.1,46.8,38.6,80,56,48,27.26,27.15,10,1,10,0.00
2013-8-5,75.4,65.1,56.8,54.1,46.9,38.0,65,53,48,27.23,27.08,7,0,9,0.00
2013-8-6,78.4,68.6,62.6,61.5,56.5,44.2,83,66,48,27.08,27.00,9,1,9,0.02
2013-8-7,81.0,71.8,64.9,64.1,59.2,55.2,80,66,48,27.03,26.92,10,0,10,0.00
2013-8-8,77.4,70.3,64.6,62.9,55.3,46.3,78,60,48,27.13,27.00,8,1,8,0.00
2013-8-9,78.6,68.3,58.1,56.9,51.0,46.0,78,55,48,27.12,27.04,4,0,4,0.04
2013-8-10,76.5,68.2,61.2,56.1,52.2,43.6,78,58,48,27.24,27.11,4,0,4,0.00
2013-8-11,79.7,69.0,59.7,58.0,51.7,41.5,70,55,48,27.23,27.14,4,0,4,0.00
2013-8-12,70.7,66.7,64.0,63.4,56.7,46.3,83,71,48,27.17,27.01,3,0,3,0.00
2013-8-13,66.9,61.6,54.0,53.2,44.6,36.0,85,55,48,27.15,27.01,7,1,7,0.00
2013-8-14,70.0,62.6,53.6,68.2,44.6,38.0,100,53,48,27.26,27.15,7,0,7,0.00
2013-8-15,74.3,60.2,50.5,67.5,47.4,38.8,100,66,48,27.28,27.19,5,0,5,0.00
2013-8-16,77.2,64.3,53.2,55.8,48.7,38.0,80,59,48,27.27,27.21,5,0,5,0.00
2013-8-17,78.3,66.8,54.9,56.8,50.3,40.2,83,57,48,27.38,27.29,6,1,6,0.00
2013-8-18,79.5,68.1,57.6,60.6,51.8,40.0,80,58,48,27.33,27.21,6,0,6,0.00
2013-8-19,81.9,68.7,58.1,60.1,51.5,42.0,75,56,48,27.23,27.14,0,0,0,0.00
2013-8-20,86.4,72.6,59.7,64.2,55.4,43.5,75,56,48,27.25,27.17,0,0,0,0.00
2013-8-21,88.2,76.2,65.1,65.8,56.8,46.8,68,52,48,27.24,27.10,3,0,3,0.00
2013-8-22,84.9,76.0,70.2,62.8,56.0,50.4,63,51,48,27.15,27.04,5,0,5,0.00
2013-8-23,79.3,69.5,59.5,57.7,50.8,42.5,68,52,48,27.31,27.15,5,0,5,0.00
2013-8-24,77.2,62.5,56.5,60.3,49.0,39.5,78,63,48,27.42,27.31,5,0,5,0.00
2013-8-25,85.6,77.8,58.3,63.5,57.2,40.9,68,50,48,27.40,27.24,5,0,5,0.00
2013-8-26,88.3,77.4,67.8,65.9,57.4,47.1,70,51,48,27.26,27.08,6,0,6,0.00
2013-8-27,84.4,75.9,70.0,67.2,64.3,61.6,75,67,50,27.09,26.94,5,0,5,0.00
2013-8-28,81.7,75.6,69.3,65.6,62.3,54.6,73,64,48,27.12,26.90,6,0,6,0.00
2013-8-29,86.2,75.0,65.8,64.0,60.1,54.4,80,62,48,27.18,27.11,6,0,6,0.26
2013-8-30,86.4,76.0,66.0,65.6,61.0,55.4,78,61,48,27.12,26.86,4,0,4,0.00
2013-8-31,79.5,73.3,69.1,64.5,59.2,50.2,75,63,48,26.95,26.86,5,0,5,0.00
2013-9-1,80.1,71.8,67.5,62.6,59.3,54.7,78,66,48,26.86,26.85,7,0,7,0.00
2013-9-2,74.1,68.0,58.5,62.6,53.9,40.0,80,62,48,27.02,26.83,7,1,7,0.17
2013-9-3,70.2,62.4,56.3,51.3,48.0,41.5,80,61,48,27.12,27.01,6,0,6,0.00
2013-9-4,76.5,66.0,54.0,60.3,51.6,48.0,85,62,48,27.17,27.09,5,0,5,0.00
2013-9-5,68.9,62.6,54.3,53.2,45.2,34.5,75,54,48,27.36,27.17,5,1,5,0.00
2013-9-6,72.5,60.3,48.6,51.4,44.5,29.6,85,58,48,27.38,27.20,5,0,5,0.00
2013-9-7,80.8,67.2,58.1,63.6,50.6,38.2,75,56,48,27.17,27.00,3,0,3,0.04
2013-9-8,73.0,68.0,57.9,61.3,52.5,38.0,75,59,48,27.20,27.02,10,1,10,0.47
2013-9-9,74.3,65.0,55.8,61.6,53.7,39.2,78,67,50,27.18,27.01,6,0,6,0.04
2013-9-10,89.2,78.9,68.7,66.8,62.1,52.6,75,58,48,27.12,26.99,6,0,6,0.00
2013-9-11,88.7,76.8,68.5,66.3,59.9,51.6,78,57,48,27.15,27.01,4,0,4,0.75
2013-9-12,73.8,70.6,65.3,68.2,55.4,44.8,100,61,48,27.05,26.94,7,0,7,0.00
2013-9-14,69.1,57.6,54.0,54.0,39.8,34.9,100,53,48,27.21,27.18,0,0,0,0.00
2013-9-15,64.8,60.9,55.8,49.8,44.5,40.3,80,56,48,27.20,27.15,0,0,0,0.00
2013-9-16,61.0,59.6,58.3,40.9,39.6,38.2,48,48,48,27.42,27.40,5,1,5,0.00
2013-9-18,68.7,62.1,59.5,68.7,42.8,40.0,100,50,48,27.16,27.14,4,0,4,0.00
2013-9-19,79.5,68.5,58.8,57.9,53.1,45.4,75,59,48,27.15,27.02,8,1,8,0.00
2013-9-20,81.7,72.0,67.1,61.4,58.3,53.5,73,63,48,27.03,26.84,6,0,7,0.00
2013-9-21,67.5,61.6,53.8,57.0,47.1,34.2,73,60,48,26.97,26.78,6,0,6,0.00
2013-9-22,57.7,52.2,45.9,37.7,33.1,26.8,55,49,48,27.19,26.96,7,1,7,0.00
2013-9-23,59.9,50.0,41.2,42.3,33.4,23.8,78,54,48,27.29,27.18,7,0,7,0.00
2013-9-24,63.7,52.7,41.0,47.2,37.7,23.5,83,58,48,27.25,27.09,7,0,7,0.00
2013-9-25,67.6,56.4,46.4,49.0,43.0,37.0,85,63,48,27.12,27.05,4,0,4,0.00
2013-9-26,71.2,58.3,46.8,50.8,44.3,37.7,85,62,48,27.25,27.10,0,0,2,0.00
2013-9-27,72.3,59.5,48.6,52.9,46.4,39.7,85,64,48,27.34,27.24,5,0,5,0.00
2013-9-28,73.6,63.8,54.5,55.3,49.4,41.0,83,62,48,27.30,27.12,10,1,10,0.00
2013-9-29,62.8,60.6,59.0,54.9,49.2,41.0,78,66,48,27.12,27.05,6,0,6,0.00
2013-9-30,69.3,58.7,56.1,67.8,44.5,38.2,100,60,48,27.06,27.03,0,0,0,0.00
2013-10-1,71.6,61.2,52.2,52.0,47.8,43.5,75,63,48,27.12,27.03,57,2,57,0.00
2013-10-2,72.7,63.0,55.0,67.6,47.7,35.3,100,59,48,27.18,27.04,1,0,1,0.00
2013-10-3,78.1,65.6,54.1,56.4,50.0,38.0,75,58,48,27.17,27.02,57,1,57,0.00
2013-10-4,78.3,70.3,64.6,58.5,55.1,49.4,73,60,48,27.14,27.04,5,0,5,0.00
2013-10-5,73.4,68.0,64.8,59.2,56.6,54.9,73,67,55,27.15,26.97,16,1,28,1.07
2013-10-6,70.7,65.6,55.2,58.2,54.7,47.5,78,68,58,26.97,26.73,10,2,10,0.16
2013-10-7,56.5,52.5,44.8,47.5,40.6,26.0,75,65,48,27.15,26.80,6,1,57,0.00
2013-10-8,45.5,42.8,41.5,37.3,27.6,22.9,73,56,48,27.31,27.21,0,0,0,0.00
2013-10-9,67.8,54.4,43.7,52.4,38.7,26.4,85,57,48,27.41,27.31,0,0,0,0.00
2013-10-10,67.5,54.9,45.1,52.7,39.9,27.6,88,59,48,27.33,27.22,57,3,57,0.00
2013-10-11,67.1,54.3,42.1,50.6,38.2,25.1,88,56,48,27.25,27.17,57,7,57,0.00
2013-10-12,71.8,61.4,50.9,57.2,48.7,41.4,85,65,48,27.21,27.13,57,4,57,0.00
2013-10-13,64.8,58.3,47.8,54.6,43.7,28.6,83,60,48,27.43,27.18,57,4,57,0.00
2013-10-14,59.7,51.8,44.2,42.3,35.1,26.1,85,54,48,27.49,27.36,57,3,57,0.00
2013-10-15,66.6,55.0,45.0,55.0,44.8,26.4,88,69,48,27.37,26.93,57,3,57,0.02
2013-10-16,61.3,57.6,52.5,54.8,45.5,37.0,80,65,48,26.94,26.90,57,2,57,0.00
2013-10-21,52.0,50.8,49.1,44.8,44.0,42.4,80,78,70,26.93,26.92,1,0,3,0.02
2013-10-22,44.2,36.5,32.4,25.4,18.3,14.5,48,48,48,27.03,27.00,5,1,57,0.00
2013-10-23,46.9,38.7,31.5,27.9,20.3,13.7,48,48,48,27.05,27.01,57,15,57,0.00
2013-10-24,46.8,36.5,28.9,27.8,18.3,11.3,48,48,48,27.28,27.04,57,3,57,0.00
2013-10-25,48.9,37.4,28.8,29.7,19.1,11.2,48,48,48,27.43,27.21,57,3,57,0.00
2013-10-26,50.9,41.3,33.3,31.6,22.8,15.4,48,48,48,27.21,26.88,57,6,57,0.04
2013-10-27,49.6,38.6,29.5,30.4,20.2,11.9,48,48,48,27.19,27.10,57,1,57,0.00
2013-10-28,52.0,40.1,30.9,32.6,21.6,13.2,48,48,48,27.51,27.16,57,7,57,0.00
2013-10-29,50.2,41.9,37.0,30.9,23.2,18.8,48,48,48,27.56,27.36,57,14,57,0.00
2013-10-30,58.6,45.4,32.7,40.9,26.7,14.8,70,48,48,27.36,27.13,57,5,57,1.31
2013-10-31,59.7,57.4,51.6,45.5,40.0,37.2,75,53,48,27.09,26.46,11,3,15,0.96
2013-11-1,58.6,50.4,46.0,38.7,31.3,27.1,53,48,48,26.78,26.34,57,3,57,0.06
2013-11-2,46.0,42.4,32.9,27.1,23.7,15.0,48,48,48,27.22,26.77,7,1,8,0.10
2013-11-3,38.7,32.3,29.3,20.2,14.4,11.7,48,48,48,27.46,27.21,10,0,10,0.00
2013-11-4,42.3,41.2,39.9,23.7,22.7,21.5,48,48,48,27.44,27.42,57,9,57,0.00
2013-11-5,54.9,47.9,39.9,38.5,29.5,21.5,63,49,48,27.47,27.29,57,11,57,0.00
2013-11-6,53.4,51.8,48.7,43.7,35.2,29.6,73,54,48,27.29,26.94,57,4,57,0.16
2013-11-7,42.8,38.4,33.3,24.1,20.1,15.4,48,48,48,27.23,27.09,57,5,57,0.00
2013-11-8,43.5,34.1,27.3,24.8,16.1,9.8,48,48,48,27.38,27.22,57,5,57,0.00
2013-11-9,54.9,45.8,34.7,35.3,26.9,16.7,48,48,48,27.29,26.90,57,9,57,0.00
2013-11-10,47.8,40.8,31.1,28.7,22.3,13.3,48,48,48,27.38,27.01,57,7,57,0.00
2013-11-11,41.9,34.4,23.7,23.1,16.4,6.5,48,48,48,27.41,27.12,57,2,57,0.17
2013-11-12,30.9,24.7,20.1,13.2,7.4,3.0,48,48,48,27.63,27.40,14,4,14,0.00
2013-11-13,32.2,29.5,28.0,14.4,11.9,10.4,48,48,48,27.36,27.27,0,0,0,0.00
2013-11-14,45.3,35.6,25.2,26.4,17.5,7.7,48,48,48,27.28,27.08,0,0,0,0.02
2013-11-15,52.0,41.0,33.6,32.4,22.4,15.7,48,48,48,27.18,27.09,14,1,14,0.00
2013-11-16,54.3,44.2,31.8,41.9,26.7,13.8,63,51,48,27.22,26.92,19,3,19,0.00
2013-11-17,59.0,56.1,48.6,44.5,38.5,28.9,68,52,48,26.93,26.35,17,4,22,0.38
2013-11-18,46.2,39.2,33.3,27.3,20.8,15.4,48,48,48,27.22,27.01,60,6,60,0.00
2013-11-19,37.6,32.2,25.3,19.3,14.4,8.0,48,48,48,27.51,27.22,59,2,59,0.00
2013-11-20,43.7,33.1,23.7,25.0,15.2,6.5,48,48,48,27.54,27.33,59,2,60,0.00
2013-11-21,48.9,42.4,37.4,29.7,23.7,19.2,48,48,48,27.38,27.28,15,2,15,0.06
2013-11-22,44.1,36.0,24.4,25.3,17.8,7.2,48,48,48,27.46,27.23,59,3,60,0.02
2013-11-23,26.8,21.4,14.4,23.2,4.9,-15.2,100,50,48,27.59,27.36,60,4,60,0.00
2013-11-24,22.3,15.2,-13.7,16.0,-0.3,-28.0,100,51,48,27.69,27.51,60,4,60,0.00
2013-11-25,31.5,22.7,-2.6,16.0,6.2,-17.7,100,50,48,27.51,27.17,30,2,30,0.00
2013-11-26,33.4,29.5,10.9,31.5,12.7,-5.3,100,51,48,27.20,27.03,29,1,29,0.00
2013-11-27,24.4,22.8,20.7,24.4,16.3,3.8,100,80,48,27.16,27.04,59,8,59,0.00
2013-11-28,27.9,22.3,15.4,10.4,5.3,-1.1,48,48,48,27.53,27.35,14,1,14,0.00
2013-11-29,29.5,19.6,8.8,11.9,2.7,-7.2,48,48,48,27.77,27.53,7,1,7,0.00
2013-11-30,43.5,30.4,22.1,26.9,14.0,5.1,81,51,48,29.92,27.26,28,3,28,0.22
2013-12-1,43.0,35.1,28.2,32.6,29.7,25.1,94,81,64,29.89,29.82,7,2,0,0.00
2013-12-2,38.7,31.4,24.3,30.2,24.3,19.6,93,77,49,29.87,29.79,5,1,0,0.00
2013-12-3,37.0,32.6,24.3,36.2,30.1,21.5,97,90,81,29.85,29.80,7,3,0,0.00
2013-12-4,53.1,45.5,37.2,50.8,43.5,36.4,99,93,84,29.88,29.63,12,4,0,0.05
2013-12-5,56.1,41.8,29.3,53.9,33.9,20.6,95,74,59,30.15,29.61,10,4,0,0.00
2013-12-6,29.3,24.9,18.1,20.9,16.0,11.2,75,69,63,30.35,30.14,7,3,0,0.00
2013-12-7,27.1,18.0,10.0,11.3,8.1,6.6,86,65,46,30.49,30.36,8,3,0,0.00
2013-12-8,27.7,18.4,8.8,26.7,12.8,6.0,96,79,59,30.47,29.83,11,3,0,0.00
2013-12-9,28.0,25.3,18.5,27.5,21.6,12.4,98,86,71,29.93,29.71,8,4,0,0.00
2013-12-10,20.3,16.8,9.1,17.4,8.7,0.6,91,71,46,30.02,29.79,9,3,0,0.00
2013-12-11,25.3,16.2,5.0,17.6,10.2,0.5,88,77,65,30.27,30.02,9,3,0,0.00
2013-12-12,18.3,11.8,-0.6,12.6,4.9,-3.0,91,74,44,30.27,29.98,8,3,0,0.00
2013-12-13,28.0,23.2,18.7,20.2,17.0,10.6,83,77,68,30.10,29.94,7,2,0,0.00
2013-12-14,20.3,17.8,15.6,19.1,14.8,8.9,95,88,67,30.09,29.61,11,4,0,0.00
2013-12-15,24.3,17.6,8.6,22.9,15.3,6.0,95,91,81,29.85,29.60,10,3,0,0.00
2013-12-16,31.8,13.4,1.9,17.1,7.8,-0.6,93,79,51,30.00,29.83,7,2,0,0.00
2013-12-17,27.3,20.7,12.2,23.2,18.3,10.1,97,90,79,29.83,29.70,6,2,0,0.00
2013-12-18,30.4,24.8,20.5,24.4,20.5,14.1,97,84,68,29.94,29.74,7,2,0,0.00
2013-12-19,41.7,31.8,21.9,32.9,25.8,16.2,93,78,64,29.84,29.70,5,1,0,0.33
2013-12-20,36.1,33.5,32.2,34.8,31.8,30.4,95,93,91,29.77,29.59,4,1,0,0.66
2013-12-21,33.6,32.4,31.6,31.3,30.1,29.0,91,91,90,29.73,29.53,8,2,0,0.94
2013-12-22,36.0,33.0,31.5,32.0,30.2,28.6,91,89,83,29.85,29.45,6,2,0,0.35
2013-12-23,31.3,26.6,20.3,28.4,21.1,12.4,89,80,70,30.18,29.85,5,2,0,0.00
2013-12-24,19.9,12.2,5.2,11.7,5.3,1.2,85,74,56,30.41,30.18,10,3,0,0.00
2013-12-25,22.8,17.1,4.1,19.3,12.4,0.1,86,81,74,30.37,29.97,10,4,0,0.00
2013-12-26,27.7,23.9,21.6,23.7,18.4,12.9,88,80,64,30.13,29.89,9,2,0,0.00
2013-12-27,38.1,31.2,23.0,28.9,25.4,19.2,89,79,67,30.17,29.90,6,2,0,0.12
2013-12-28,52.3,38.7,28.8,32.1,29.3,25.2,86,69,46,29.96,29.75,7,3,0,0.01
2013-12-29,42.1,33.0,19.0,29.2,24.7,11.8,85,72,57,29.86,29.53,7,3,0,0.00
2013-12-30,20.5,17.1,13.5,11.7,6.6,2.2,73,63,53,30.10,29.86,8,3,0,0.00
2013-12-31,18.7,15.5,12.2,12.1,8.0,3.9,82,72,59,30.16,29.87,8,3,0,0.00
2014-1-1,14.2,12.0,9.1,9.7,6.1,1.9,83,77,65,30.24,30.08,5,2,0,0.00
2014-1-2,14.0,10.2,0.5,9.5,5.1,-5.5,83,79,74,30.11,29.92,15,5,0,0.00